createdAt,value
2018-06-11T00:00:13.896Z,97252.16
2018-06-11T00:00:45.540Z,97254.84
2018-06-11T00:01:17.112Z,97248.76
2018-06-11T00:01:48.717Z,97256.44
2018-06-11T00:02:20.288Z,97257.72
2018-06-11T00:02:51.884Z,97247.82
2018-06-11T00:03:23.661Z,97253.31
2018-06-11T00:03:55.236Z,97252.40
2018-06-11T00:04:26.813Z,97251.95
2018-06-11T00:04:58.390Z,97251.52
2018-06-11T00:05:29.960Z,97253.22
2018-06-11T00:06:01.543Z,97254.08
2018-06-11T00:06:33.142Z,97252.38
2018-06-11T00:07:04.736Z,97256.64
2018-06-11T00:07:36.345Z,97256.24
2018-06-11T00:08:07.917Z,97256.73
2018-06-11T00:08:39.560Z,97251.69
2018-06-11T00:09:11.165Z,97253.34
2018-06-11T00:09:42.749Z,97256.77
2018-06-11T00:10:14.379Z,97254.20
2018-06-11T00:10:46.014Z,97259.77
2018-06-11T00:11:17.607Z,97260.60
2018-06-11T00:11:49.194Z,97261.05
2018-06-11T00:12:20.798Z,97264.03
2018-06-11T00:12:52.382Z,97262.84
2018-06-11T00:13:23.989Z,97264.17
2018-06-11T00:13:55.570Z,97262.57
2018-06-11T00:14:27.173Z,97263.05
2018-06-11T00:14:58.777Z,97261.34
2018-06-11T00:15:30.352Z,97266.47
2018-06-11T00:16:01.987Z,97260.88
2018-06-11T00:16:33.569Z,97263.05
2018-06-11T00:17:05.173Z,97263.48
2018-06-11T00:17:36.785Z,97260.95
2018-06-11T00:18:08.388Z,97262.25
2018-06-11T00:18:39.960Z,97269.08
2018-06-11T00:19:11.551Z,97266.52
2018-06-11T00:19:43.137Z,97263.97
2018-06-11T00:20:14.718Z,97263.53
2018-06-11T00:20:46.361Z,97264.77
2018-06-11T00:21:17.956Z,97262.63
2018-06-11T00:21:49.537Z,97268.55
2018-06-11T00:22:21.147Z,97270.31
2018-06-11T00:22:52.749Z,97266.09
2018-06-11T00:23:24.348Z,97267.03
2018-06-11T00:23:55.945Z,97270.89
2018-06-11T00:24:27.558Z,97269.61
2018-06-11T00:24:59.152Z,97271.34
2018-06-11T00:25:30.757Z,97269.64
2018-06-11T00:26:02.341Z,97272.59
2018-06-11T00:26:33.909Z,97274.27
2018-06-11T00:27:05.484Z,97270.38
2018-06-11T00:27:37.138Z,97271.71
2018-06-11T00:28:08.760Z,97270.91
2018-06-11T00:28:40.331Z,97274.39
2018-06-11T00:29:11.914Z,97278.70
2018-06-11T00:29:43.487Z,97271.14
2018-06-11T00:30:15.064Z,97272.80
2018-06-11T00:30:46.632Z,97266.86
2018-06-11T00:31:18.208Z,97277.00
2018-06-11T00:31:49.790Z,97270.58
2018-06-11T00:32:21.379Z,97275.72
2018-06-11T00:32:52.975Z,97276.55
2018-06-11T00:33:24.614Z,97273.63
2018-06-11T00:33:56.225Z,97273.23
2018-06-11T00:34:27.828Z,97277.54
2018-06-11T00:34:59.434Z,97278.43
2018-06-11T00:35:31.027Z,97278.45
2018-06-11T00:36:02.628Z,97275.94
2018-06-11T00:36:34.247Z,97281.48
2018-06-11T00:37:05.854Z,97276.53
2018-06-11T00:37:37.462Z,97280.31
2018-06-11T00:38:09.049Z,97276.13
2018-06-11T00:38:40.687Z,97281.70
2018-06-11T00:39:12.321Z,97280.49
2018-06-11T00:39:43.901Z,97280.49
2018-06-11T00:40:15.481Z,97280.92
2018-06-11T00:40:47.085Z,97284.32
2018-06-11T00:41:18.692Z,97281.84
2018-06-11T00:41:50.305Z,97283.48
2018-06-11T00:42:21.894Z,97289.05
2018-06-11T00:42:53.488Z,97287.77
2018-06-11T00:43:25.060Z,97286.46
2018-06-11T00:43:56.660Z,97290.30
2018-06-11T00:44:28.296Z,97288.60
2018-06-11T00:44:59.895Z,97291.68
2018-06-11T00:45:31.477Z,97297.66
2018-06-11T00:46:03.071Z,97291.36
2018-06-11T00:46:34.661Z,97297.66
2018-06-11T00:47:06.268Z,97290.84
2018-06-11T00:47:37.850Z,97296.80
2018-06-11T00:48:09.452Z,97293.82
2018-06-11T00:48:41.041Z,97293.38
2018-06-11T00:49:12.646Z,97291.23
2018-06-11T00:49:44.254Z,97296.38
2018-06-11T00:50:15.862Z,97295.08
2018-06-11T00:50:47.494Z,97291.70
2018-06-11T00:51:19.067Z,97290.52
2018-06-11T00:51:50.649Z,97297.30
2018-06-11T00:52:22.237Z,97294.75
2018-06-11T00:52:53.871Z,97287.09
2018-06-11T00:53:25.449Z,97292.64
2018-06-11T00:53:57.057Z,97290.54
2018-06-11T00:54:28.661Z,97295.27
2018-06-11T00:55:00.244Z,97295.66
2018-06-11T00:55:31.893Z,97294.38
2018-06-11T00:56:03.488Z,97292.73
2018-06-11T00:56:35.098Z,97296.55
2018-06-11T00:57:06.685Z,97293.58
2018-06-11T00:57:38.286Z,97293.58
2018-06-11T00:58:09.866Z,97296.13
2018-06-11T00:58:41.433Z,97295.27
2018-06-11T00:59:13.000Z,97296.99
2018-06-11T00:59:44.581Z,97291.02
2018-06-11T01:00:16.161Z,97296.55
2018-06-11T01:00:47.782Z,97291.88
2018-06-11T01:01:19.361Z,97300.39
2018-06-11T01:01:50.967Z,97297.34
2018-06-11T01:02:22.573Z,97299.48
2018-06-11T01:02:54.207Z,97297.34
2018-06-11T01:03:25.810Z,97294.75
2018-06-11T01:03:57.394Z,97301.58
2018-06-11T01:04:28.988Z,97292.61
2018-06-11T01:05:00.621Z,97302.41
2018-06-11T01:05:32.209Z,97296.02
2018-06-11T01:06:03.804Z,97293.45
2018-06-11T01:06:35.376Z,97302.00
2018-06-11T01:07:06.962Z,97295.13
2018-06-11T01:07:38.552Z,97302.68
2018-06-11T01:08:10.161Z,97292.85
2018-06-11T01:08:41.756Z,97292.80
2018-06-11T01:09:13.362Z,97302.17
2018-06-11T01:09:44.941Z,97300.11
2018-06-11T01:10:16.584Z,97306.09
2018-06-11T01:10:48.170Z,97302.27
2018-06-11T01:11:19.749Z,97306.17
2018-06-11T01:11:51.520Z,97301.52
2018-06-11T01:12:23.095Z,97300.72
2018-06-11T01:12:54.664Z,97302.87
2018-06-11T01:13:26.241Z,97302.48
2018-06-11T01:13:57.812Z,97304.69
2018-06-11T01:14:29.384Z,97309.39
2018-06-11T01:15:00.974Z,97303.85
2018-06-11T01:15:32.555Z,97300.44
2018-06-11T01:16:04.129Z,97305.13
2018-06-11T01:16:35.728Z,97308.55
2018-06-11T01:17:07.358Z,97306.91
2018-06-11T01:17:38.933Z,97303.44
2018-06-11T01:18:10.542Z,97308.86
2018-06-11T01:18:42.149Z,97306.25
2018-06-11T01:19:13.753Z,97303.62
2018-06-11T01:19:45.377Z,97305.69
2018-06-11T01:20:16.944Z,97309.52
2018-06-11T01:20:48.563Z,97306.53
2018-06-11T01:21:20.136Z,97305.66
2018-06-11T01:21:51.746Z,97307.36
2018-06-11T01:22:23.341Z,97305.24
2018-06-11T01:22:54.907Z,97305.69
2018-06-11T01:23:26.513Z,97307.92
2018-06-11T01:23:58.124Z,97303.64
2018-06-11T01:24:29.709Z,97307.06
2018-06-11T01:25:01.418Z,97304.06
2018-06-11T01:25:33.006Z,97307.92
2018-06-11T01:26:04.609Z,97306.72
2018-06-11T01:26:36.381Z,97303.69
2018-06-11T01:27:07.966Z,97310.09
2018-06-11T01:27:39.562Z,97310.97
2018-06-11T01:28:11.155Z,97304.67
2018-06-11T01:28:42.764Z,97312.07
2018-06-11T01:29:14.345Z,97316.09
2018-06-11T01:29:45.949Z,97307.70
2018-06-11T01:30:17.561Z,97312.47
2018-06-11T01:30:49.165Z,97311.23
2018-06-11T01:31:20.740Z,97309.61
2018-06-11T01:31:52.362Z,97310.56
2018-06-11T01:32:23.959Z,97311.00
2018-06-11T01:32:55.541Z,97313.14
2018-06-11T01:33:27.107Z,97311.44
2018-06-11T01:33:58.708Z,97310.58
2018-06-11T01:34:30.304Z,97308.08
2018-06-11T01:35:01.886Z,97310.58
2018-06-11T01:35:33.492Z,97311.05
2018-06-11T01:36:05.098Z,97311.86
2018-06-11T01:36:36.681Z,97307.22
2018-06-11T01:37:08.296Z,97310.66
2018-06-11T01:37:39.900Z,97309.81
2018-06-11T01:38:11.485Z,97306.53
2018-06-11T01:38:43.167Z,97303.61
2018-06-11T01:39:14.755Z,97304.89
2018-06-11T01:39:46.347Z,97302.37
2018-06-11T01:40:17.924Z,97306.53
2018-06-11T01:40:49.513Z,97302.16
2018-06-11T01:41:21.084Z,97307.23
2018-06-11T01:41:52.690Z,97302.95
2018-06-11T01:42:24.304Z,97307.16
2018-06-11T01:42:55.885Z,97301.95
2018-06-11T01:43:27.469Z,97304.39
2018-06-11T01:43:59.082Z,97306.00
2018-06-11T01:44:30.661Z,97304.77
2018-06-11T01:45:02.257Z,97304.77
2018-06-11T01:45:33.845Z,97303.44
2018-06-11T01:46:05.445Z,97297.90
2018-06-11T01:46:37.040Z,97297.95
2018-06-11T01:47:08.622Z,97294.98
2018-06-11T01:47:40.212Z,97299.67
2018-06-11T01:48:11.797Z,97300.52
2018-06-11T01:48:43.363Z,97299.66
2018-06-11T01:49:15.013Z,97303.49
2018-06-11T01:49:46.584Z,97302.23
2018-06-11T01:50:18.162Z,97306.93
2018-06-11T01:50:49.741Z,97295.66
2018-06-11T01:51:21.333Z,97300.67
2018-06-11T01:51:52.941Z,97301.63
2018-06-11T01:52:24.530Z,97298.44
2018-06-11T01:52:56.096Z,97303.86
2018-06-11T01:53:27.677Z,97300.74
2018-06-11T01:53:59.261Z,97305.13
2018-06-11T01:54:30.914Z,97298.19
2018-06-11T01:55:02.585Z,97297.95
2018-06-11T01:55:34.188Z,97300.23
2018-06-11T01:56:05.769Z,97302.12
2018-06-11T01:56:37.449Z,97296.71
2018-06-11T01:57:09.043Z,97301.58
2018-06-11T01:57:40.640Z,97299.67
2018-06-11T01:58:12.216Z,97300.73
2018-06-11T01:58:43.928Z,97301.40
2018-06-11T01:59:15.514Z,97294.04
2018-06-11T01:59:47.132Z,97297.66
2018-06-11T02:00:18.733Z,97299.23
2018-06-11T02:00:50.337Z,97285.89
2018-06-11T02:01:21.918Z,97296.44
2018-06-11T02:01:53.496Z,97291.21
2018-06-11T02:02:25.097Z,97291.11
2018-06-11T02:02:56.715Z,97289.31
2018-06-11T02:03:28.324Z,97290.98
2018-06-11T02:04:00.381Z,97286.63
2018-06-11T02:04:31.985Z,97290.45
2018-06-11T02:05:03.647Z,97291.65
2018-06-11T02:05:35.221Z,97292.91
2018-06-11T02:06:06.834Z,97286.90
2018-06-11T02:06:38.468Z,97280.95
2018-06-11T02:07:10.076Z,97269.34
2018-06-11T02:07:41.681Z,97287.23
2018-06-11T02:08:13.265Z,97293.54
2018-06-11T02:08:44.874Z,97289.63
2018-06-11T02:09:16.477Z,97295.59
2018-06-11T02:09:48.061Z,97294.70
2018-06-11T02:10:19.669Z,97290.86
2018-06-11T02:10:51.257Z,97290.02
2018-06-11T02:11:22.861Z,97293.39
2018-06-11T02:11:54.489Z,97292.14
2018-06-11T02:12:26.093Z,97292.92
2018-06-11T02:12:57.701Z,97289.47
2018-06-11T02:13:29.276Z,97288.61
2018-06-11T02:14:00.890Z,97293.31
2018-06-11T02:14:32.478Z,97295.46
2018-06-11T02:15:04.070Z,97295.44
2018-06-11T02:15:35.647Z,97299.67
2018-06-11T02:16:07.284Z,97299.20
2018-06-11T02:16:38.865Z,97297.05
2018-06-11T02:17:10.453Z,97300.86
2018-06-11T02:17:42.064Z,97298.71
2018-06-11T02:18:13.669Z,97302.92
2018-06-11T02:18:45.254Z,97297.80
2018-06-11T02:19:16.823Z,97302.03
2018-06-11T02:19:48.429Z,97299.05
2018-06-11T02:20:20.014Z,97298.63
2018-06-11T02:20:51.593Z,97305.04
2018-06-11T02:21:23.200Z,97297.77
2018-06-11T02:21:54.793Z,97299.45
2018-06-11T02:22:26.393Z,97298.97
2018-06-11T02:22:58.002Z,97293.91
2018-06-11T02:23:29.589Z,97292.63
2018-06-11T02:24:01.158Z,97299.89
2018-06-11T02:24:32.767Z,97291.78
2018-06-11T02:25:04.394Z,97292.23
2018-06-11T02:25:35.991Z,97294.77
2018-06-11T02:26:07.580Z,97293.93
2018-06-11T02:26:39.176Z,97293.06
2018-06-11T02:27:10.801Z,97296.48
2018-06-11T02:27:42.432Z,97297.35
2018-06-11T02:28:14.038Z,97291.36
2018-06-11T02:28:45.621Z,97290.92
2018-06-11T02:29:17.197Z,97293.48
2018-06-11T02:29:48.845Z,97297.27
2018-06-11T02:30:20.450Z,97296.88
2018-06-11T02:30:52.035Z,97288.30
2018-06-11T02:31:23.618Z,97294.27
2018-06-11T02:31:55.201Z,97294.64
2018-06-11T02:32:26.844Z,97289.54
2018-06-11T02:32:58.425Z,97293.28
2018-06-11T02:33:29.998Z,97294.95
2018-06-11T02:34:01.591Z,97295.30
2018-06-11T02:34:33.198Z,97287.48
2018-06-11T02:35:04.796Z,97286.94
2018-06-11T02:35:36.406Z,97295.37
2018-06-11T02:36:08.017Z,97292.81
2018-06-11T02:36:39.616Z,97293.26
2018-06-11T02:37:11.227Z,97293.68
2018-06-11T02:37:42.804Z,97287.30
2018-06-11T02:38:14.381Z,97289.47
2018-06-11T02:38:45.953Z,97292.89
2018-06-11T02:39:17.528Z,97288.66
2018-06-11T02:39:49.138Z,97293.34
2018-06-11T02:40:20.734Z,97289.08
2018-06-11T02:40:52.337Z,97275.89
2018-06-11T02:41:23.935Z,97289.52
2018-06-11T02:41:55.546Z,97295.56
2018-06-11T02:42:27.187Z,97293.39
2018-06-11T02:42:58.791Z,97294.67
2018-06-11T02:43:30.423Z,97293.45
2018-06-11T02:44:02.006Z,97303.64
2018-06-11T02:44:33.613Z,97295.95
2018-06-11T02:45:05.188Z,97296.42
2018-06-11T02:45:36.770Z,97299.85
2018-06-11T02:46:08.350Z,97293.86
2018-06-11T02:46:39.958Z,97296.05
2018-06-11T02:47:11.546Z,97290.88
2018-06-11T02:47:43.130Z,97293.00
2018-06-11T02:48:14.717Z,97290.44
2018-06-11T02:48:46.346Z,97293.39
2018-06-11T02:49:17.916Z,97291.66
2018-06-11T02:49:49.488Z,97294.67
2018-06-11T02:50:21.092Z,97293.81
2018-06-11T02:50:52.672Z,97294.23
2018-06-11T02:51:24.264Z,97299.35
2018-06-11T02:51:55.872Z,97293.78
2018-06-11T02:52:27.462Z,97295.92
2018-06-11T02:52:59.044Z,97294.64
2018-06-11T02:53:30.636Z,97302.33
2018-06-11T02:54:02.252Z,97298.91
2018-06-11T02:54:33.911Z,97301.05
2018-06-11T02:55:05.498Z,97297.73
2018-06-11T02:55:37.103Z,97299.35
2018-06-11T02:56:08.703Z,97299.77
2018-06-11T02:56:40.308Z,97304.92
2018-06-11T02:57:11.918Z,97298.48
2018-06-11T02:57:43.492Z,97302.31
2018-06-11T02:58:15.068Z,97295.17
2018-06-11T02:58:46.645Z,97302.75
2018-06-11T02:59:18.230Z,97303.62
2018-06-11T02:59:49.848Z,97304.03
2018-06-11T03:00:21.450Z,97298.05
2018-06-11T03:00:53.062Z,97305.31
2018-06-11T03:01:24.675Z,97304.02
2018-06-11T03:01:56.252Z,97302.31
2018-06-11T03:02:27.821Z,97304.88
2018-06-11T03:02:59.426Z,97305.73
2018-06-11T03:03:31.014Z,97303.25
2018-06-11T03:04:02.602Z,97301.45
2018-06-11T03:04:34.177Z,97310.84
2018-06-11T03:05:05.785Z,97306.13
2018-06-11T03:05:37.391Z,97304.02
2018-06-11T03:06:08.995Z,97299.75
2018-06-11T03:06:40.572Z,97304.88
2018-06-11T03:07:12.159Z,97303.56
2018-06-11T03:07:43.765Z,97301.00
2018-06-11T03:08:15.375Z,97305.71
2018-06-11T03:08:47.035Z,97303.56
2018-06-11T03:09:18.632Z,97306.13
2018-06-11T03:09:50.226Z,97305.23
2018-06-11T03:10:21.824Z,97303.09
2018-06-11T03:10:53.406Z,97309.06
2018-06-11T03:11:25.018Z,97310.75
2018-06-11T03:11:56.610Z,97308.61
2018-06-11T03:12:28.197Z,97307.31
2018-06-11T03:12:59.790Z,97314.55
2018-06-11T03:13:31.381Z,97303.93
2018-06-11T03:14:03.016Z,97304.75
2018-06-11T03:14:34.606Z,97313.72
2018-06-11T03:15:06.176Z,97313.27
2018-06-11T03:15:37.823Z,97315.41
2018-06-11T03:16:09.389Z,97313.69
2018-06-11T03:16:41.045Z,97312.44
2018-06-11T03:17:12.657Z,97313.73
2018-06-11T03:17:44.276Z,97312.44
2018-06-11T03:18:15.926Z,97312.45
2018-06-11T03:18:47.524Z,97315.02
2018-06-11T03:19:19.133Z,97313.32
2018-06-11T03:19:50.718Z,97311.17
2018-06-11T03:20:22.307Z,97314.19
2018-06-11T03:20:53.916Z,97312.48
2018-06-11T03:21:25.501Z,97310.34
2018-06-11T03:21:57.085Z,97312.90
2018-06-11T03:22:28.676Z,97318.03
2018-06-11T03:23:00.285Z,97319.28
2018-06-11T03:23:31.917Z,97315.02
2018-06-11T03:24:03.502Z,97316.72
2018-06-11T03:24:35.097Z,97314.13
2018-06-11T03:25:06.697Z,97316.25
2018-06-11T03:25:38.282Z,97318.82
2018-06-11T03:26:09.876Z,97315.88
2018-06-11T03:26:41.482Z,97318.80
2018-06-11T03:27:13.070Z,97314.55
2018-06-11T03:27:44.667Z,97322.64
2018-06-11T03:28:16.255Z,97317.94
2018-06-11T03:28:47.906Z,97320.50
2018-06-11T03:29:19.508Z,97317.52
2018-06-11T03:29:51.103Z,97319.61
2018-06-11T03:30:22.700Z,97314.91
2018-06-11T03:30:54.310Z,97315.77
2018-06-11T03:31:25.884Z,97314.48
2018-06-11T03:31:57.487Z,97316.63
2018-06-11T03:32:29.097Z,97322.20
2018-06-11T03:33:00.702Z,97317.48
2018-06-11T03:33:32.293Z,97320.50
2018-06-11T03:34:03.910Z,97318.77
2018-06-11T03:34:35.513Z,97318.35
2018-06-11T03:35:07.114Z,97318.33
2018-06-11T03:35:38.699Z,97315.78
2018-06-11T03:36:10.306Z,97311.50
2018-06-11T03:36:41.885Z,97311.95
2018-06-11T03:37:13.452Z,97309.38
2018-06-11T03:37:45.021Z,97311.95
2018-06-11T03:38:16.611Z,97314.06
2018-06-11T03:38:48.265Z,97311.50
2018-06-11T03:39:19.850Z,97317.07
2018-06-11T03:39:51.420Z,97310.66
2018-06-11T03:40:23.010Z,97313.23
2018-06-11T03:40:54.590Z,97314.51
2018-06-11T03:41:26.170Z,97311.55
2018-06-11T03:41:57.786Z,97317.07
2018-06-11T03:42:29.370Z,97318.33
2018-06-11T03:43:00.936Z,97318.77
2018-06-11T03:43:32.527Z,97318.75
2018-06-11T03:44:04.158Z,97320.45
2018-06-11T03:44:35.766Z,97317.47
2018-06-11T03:45:07.349Z,97314.43
2018-06-11T03:45:38.991Z,97318.69
2018-06-11T03:46:10.577Z,97318.69
2018-06-11T03:46:42.162Z,97317.83
2018-06-11T03:47:13.766Z,97316.52
2018-06-11T03:47:45.346Z,97323.38
2018-06-11T03:48:16.948Z,97315.24
2018-06-11T03:48:48.597Z,97315.22
2018-06-11T03:49:20.178Z,97320.34
2018-06-11T03:49:51.837Z,97326.33
2018-06-11T03:50:23.416Z,97326.33
2018-06-11T03:50:55.062Z,97325.47
2018-06-11T03:51:26.650Z,97329.73
2018-06-11T03:51:58.222Z,97329.31
2018-06-11T03:52:29.816Z,97325.10
2018-06-11T03:53:01.402Z,97330.12
2018-06-11T03:53:32.967Z,97327.17
2018-06-11T03:54:04.549Z,97333.97
2018-06-11T03:54:36.130Z,97332.30
2018-06-11T03:55:07.714Z,97334.86
2018-06-11T03:55:39.322Z,97336.14
2018-06-11T03:56:10.934Z,97333.97
2018-06-11T03:56:42.518Z,97334.86
2018-06-11T03:57:14.116Z,97331.83
2018-06-11T03:57:45.701Z,97336.59
2018-06-11T03:58:17.301Z,97338.63
2018-06-11T03:58:48.889Z,97334.70
2018-06-11T03:59:20.494Z,97337.69
2018-06-11T03:59:52.129Z,97338.16
2018-06-11T04:00:23.719Z,97337.27
2018-06-11T04:00:55.304Z,97334.31
2018-06-11T04:01:26.892Z,97334.31
2018-06-11T04:01:58.502Z,97335.59
2018-06-11T04:02:30.114Z,97335.59
2018-06-11T04:03:01.693Z,97333.90
2018-06-11T04:03:33.274Z,97334.76
2018-06-11T04:04:04.882Z,97331.36
2018-06-11T04:04:36.494Z,97335.63
2018-06-11T04:05:08.145Z,97340.30
2018-06-11T04:05:40.013Z,97340.33
2018-06-11T04:06:11.617Z,97338.63
2018-06-11T04:06:43.206Z,97342.03
2018-06-11T04:07:14.789Z,97337.78
2018-06-11T04:07:47.205Z,97338.20
2018-06-11T04:08:18.872Z,97339.94
2018-06-11T04:08:50.960Z,97339.94
2018-06-11T04:09:22.538Z,97342.91
2018-06-11T04:09:54.167Z,97343.36
2018-06-11T04:10:25.753Z,97341.27
2018-06-11T04:10:57.428Z,97341.63
2018-06-11T04:11:28.983Z,97335.67
2018-06-11T04:12:00.569Z,97336.95
2018-06-11T04:12:32.146Z,97342.91
2018-06-11T04:13:03.720Z,97343.36
2018-06-11T04:13:35.361Z,97342.91
2018-06-11T04:14:06.959Z,97340.77
2018-06-11T04:14:38.545Z,97345.06
2018-06-11T04:15:10.130Z,97343.78
2018-06-11T04:15:41.727Z,97345.92
2018-06-11T04:16:13.304Z,97345.92
2018-06-11T04:16:44.896Z,97345.06
2018-06-11T04:17:16.506Z,97341.19
2018-06-11T04:17:48.094Z,97345.48
2018-06-11T04:18:19.698Z,97344.20
2018-06-11T04:18:51.293Z,97342.50
2018-06-11T04:19:22.879Z,97339.09
2018-06-11T04:19:54.476Z,97342.50
2018-06-11T04:20:26.081Z,97342.08
2018-06-11T04:20:57.685Z,97333.52
2018-06-11T04:21:29.269Z,97343.36
2018-06-11T04:22:00.912Z,97343.34
2018-06-11T04:22:32.497Z,97342.89
2018-06-11T04:23:04.088Z,97343.73
2018-06-11T04:23:35.693Z,97340.66
2018-06-11T04:24:07.271Z,97341.48
2018-06-11T04:24:38.881Z,97338.48
2018-06-11T04:25:10.512Z,97340.13
2018-06-11T04:25:42.117Z,97340.96
2018-06-11T04:26:13.730Z,97338.84
2018-06-11T04:26:45.338Z,97341.83
2018-06-11T04:27:16.981Z,97339.28
2018-06-11T04:27:48.562Z,97342.74
2018-06-11T04:28:20.145Z,97335.49
2018-06-11T04:28:51.726Z,97338.48
2018-06-11T04:29:23.306Z,97337.61
2018-06-11T04:29:54.885Z,97339.28
2018-06-11T04:30:26.472Z,97330.31
2018-06-11T04:30:58.074Z,97329.45
2018-06-11T04:31:29.668Z,97329.03
2018-06-11T04:32:01.249Z,97332.48
2018-06-11T04:32:32.859Z,97332.48
2018-06-11T04:33:04.432Z,97338.48
2018-06-11T04:33:36.033Z,97340.63
2018-06-11T04:34:07.646Z,97342.74
2018-06-11T04:34:39.283Z,97340.63
2018-06-11T04:35:10.880Z,97342.27
2018-06-11T04:35:42.462Z,97339.66
2018-06-11T04:36:14.050Z,97336.86
2018-06-11T04:36:45.658Z,97339.50
2018-06-11T04:37:17.295Z,97348.37
2018-06-11T04:37:48.901Z,97344.11
2018-06-11T04:38:20.524Z,97348.87
2018-06-11T04:38:52.099Z,97346.78
2018-06-11T04:39:23.704Z,97350.39
2018-06-11T04:39:55.285Z,97345.00
2018-06-11T04:40:26.895Z,97343.97
2018-06-11T04:40:58.493Z,97338.91
2018-06-11T04:41:30.064Z,97347.38
2018-06-11T04:42:01.655Z,97344.54
2018-06-11T04:42:33.253Z,97341.38
2018-06-11T04:43:04.832Z,97343.80
2018-06-11T04:43:36.476Z,97344.94
2018-06-11T04:44:08.056Z,97345.72
2018-06-11T04:44:39.660Z,97342.94
2018-06-11T04:45:11.349Z,97346.00
2018-06-11T04:45:42.934Z,97346.77
2018-06-11T04:46:14.542Z,97346.39
2018-06-11T04:46:46.129Z,97345.20
2018-06-11T04:47:17.733Z,97344.91
2018-06-11T04:47:49.322Z,97349.32
2018-06-11T04:48:20.909Z,97344.91
2018-06-11T04:48:52.518Z,97348.45
2018-06-11T04:49:24.123Z,97343.41
2018-06-11T04:49:55.715Z,97353.80
2018-06-11T04:50:27.305Z,97351.55
2018-06-11T04:50:58.886Z,97349.82
2018-06-11T04:51:30.473Z,97344.12
2018-06-11T04:52:02.090Z,97352.95
2018-06-11T04:52:33.664Z,97346.49
2018-06-11T04:53:05.241Z,97346.56
2018-06-11T04:53:36.851Z,97352.52
2018-06-11T04:54:08.430Z,97344.39
2018-06-11T04:54:40.018Z,97350.99
2018-06-11T04:55:11.633Z,97349.89
2018-06-11T04:55:43.222Z,97352.22
2018-06-11T04:56:14.800Z,97349.79
2018-06-11T04:56:46.380Z,97346.52
2018-06-11T04:57:17.961Z,97348.72
2018-06-11T04:57:49.549Z,97354.73
2018-06-11T04:58:21.193Z,97355.63
2018-06-11T04:58:52.788Z,97354.77
2018-06-11T04:59:24.389Z,97352.56
2018-06-11T04:59:55.996Z,97354.63
2018-06-11T05:00:27.567Z,97358.92
2018-06-11T05:00:59.169Z,97356.73
2018-06-11T05:01:30.781Z,97353.95
2018-06-11T05:02:02.362Z,97353.40
2018-06-11T05:02:33.972Z,97351.28
2018-06-11T05:03:05.582Z,97362.40
2018-06-11T05:03:37.191Z,97365.08
2018-06-11T05:04:08.801Z,97368.62
2018-06-11T05:04:40.409Z,97360.16
2018-06-11T05:05:12.040Z,97364.05
2018-06-11T05:05:43.645Z,97358.50
2018-06-11T05:06:15.253Z,97363.63
2018-06-11T05:06:46.866Z,97353.34
2018-06-11T05:07:18.473Z,97353.73
2018-06-11T05:07:50.113Z,97347.77
2018-06-11T05:08:21.681Z,97348.22
2018-06-11T05:08:53.286Z,97347.80
2018-06-11T05:09:24.883Z,97354.66
2018-06-11T05:09:56.470Z,97352.04
2018-06-11T05:10:28.053Z,97356.31
2018-06-11T05:10:59.630Z,97348.64
2018-06-11T05:11:31.208Z,97353.72
2018-06-11T05:12:02.810Z,97356.22
2018-06-11T05:12:34.418Z,97347.06
2018-06-11T05:13:06.045Z,97355.09
2018-06-11T05:13:37.612Z,97355.08
2018-06-11T05:14:09.204Z,97350.97
2018-06-11T05:14:40.778Z,97349.69
2018-06-11T05:15:12.368Z,97347.62
2018-06-11T05:15:43.963Z,97349.81
2018-06-11T05:16:15.541Z,97358.03
2018-06-11T05:16:47.134Z,97356.33
2018-06-11T05:17:18.768Z,97356.78
2018-06-11T05:17:50.377Z,97348.72
2018-06-11T05:18:21.986Z,97355.58
2018-06-11T05:18:53.573Z,97347.91
2018-06-11T05:19:25.173Z,97350.80
2018-06-11T05:19:56.777Z,97351.33
2018-06-11T05:20:28.350Z,97345.00
2018-06-11T05:20:59.957Z,97350.50
2018-06-11T05:21:31.541Z,97357.38
2018-06-11T05:22:03.143Z,97354.00
2018-06-11T05:22:34.789Z,97353.22
2018-06-11T05:23:06.393Z,97349.71
2018-06-11T05:23:37.978Z,97352.64
2018-06-11T05:24:09.561Z,97347.06
2018-06-11T05:24:41.170Z,97347.06
2018-06-11T05:25:12.768Z,97344.92
2018-06-11T05:25:44.374Z,97336.31
2018-06-11T05:26:15.959Z,97342.80
2018-06-11T05:26:47.586Z,97343.22
2018-06-11T05:27:19.192Z,97344.08
2018-06-11T05:27:50.841Z,97338.44
2018-06-11T05:28:22.436Z,97342.36
2018-06-11T05:28:54.008Z,97346.23
2018-06-11T05:29:25.589Z,97351.36
2018-06-11T05:29:57.169Z,97348.77
2018-06-11T05:30:28.760Z,97352.61
2018-06-11T05:31:00.365Z,97351.28
2018-06-11T05:31:31.978Z,97343.53
2018-06-11T05:32:03.625Z,97347.38
2018-06-11T05:32:35.200Z,97352.04
2018-06-11T05:33:06.790Z,97357.51
2018-06-11T05:33:38.369Z,97342.53
2018-06-11T05:34:09.957Z,97349.81
2018-06-11T05:34:41.582Z,97344.66
2018-06-11T05:35:13.207Z,97351.83
2018-06-11T05:35:44.797Z,97351.83
2018-06-11T05:36:16.403Z,97355.20
2018-06-11T05:36:47.981Z,97352.98
2018-06-11T05:37:19.601Z,97350.00
2018-06-11T05:37:51.182Z,97350.44
2018-06-11T05:38:22.782Z,97354.29
2018-06-11T05:38:54.398Z,97353.92
2018-06-11T05:39:26.050Z,97353.51
2018-06-11T05:39:57.648Z,97356.48
2018-06-11T05:40:29.255Z,97352.22
2018-06-11T05:41:00.841Z,97353.00
2018-06-11T05:41:32.456Z,97350.50
2018-06-11T05:42:04.043Z,97356.48
2018-06-11T05:42:35.629Z,97363.73
2018-06-11T05:43:07.269Z,97355.63
2018-06-11T05:43:38.857Z,97363.27
2018-06-11T05:44:10.493Z,97362.40
2018-06-11T05:44:42.082Z,97363.66
2018-06-11T05:45:13.666Z,97371.37
2018-06-11T05:45:45.270Z,97364.19
2018-06-11T05:46:16.877Z,97368.14
2018-06-11T05:46:48.486Z,97371.44
2018-06-11T05:47:20.098Z,97373.16
2018-06-11T05:47:51.682Z,97368.45
2018-06-11T05:48:23.279Z,97368.81
2018-06-11T05:48:54.853Z,97370.94
2018-06-11T05:49:26.434Z,97370.52
2018-06-11T05:49:58.023Z,97372.22
2018-06-11T05:50:29.606Z,97373.94
2018-06-11T05:51:01.223Z,97372.24
2018-06-11T05:51:32.820Z,97375.73
2018-06-11T05:52:04.417Z,97373.19
2018-06-11T05:52:35.984Z,97371.91
2018-06-11T05:53:07.552Z,97371.06
2018-06-11T05:53:39.202Z,97373.73
2018-06-11T05:54:10.820Z,97372.90
2018-06-11T05:54:42.413Z,97372.53
2018-06-11T05:55:13.992Z,97368.69
2018-06-11T05:55:45.580Z,97369.16
2018-06-11T05:56:17.175Z,97376.43
2018-06-11T05:56:48.762Z,97370.46
2018-06-11T05:57:20.378Z,97375.65
2018-06-11T05:57:51.959Z,97375.65
2018-06-11T05:58:23.564Z,97377.80
2018-06-11T05:58:55.142Z,97376.11
2018-06-11T05:59:26.805Z,97378.23
2018-06-11T05:59:58.385Z,97373.21
2018-06-11T06:00:29.990Z,97377.81
2018-06-11T06:01:01.593Z,97379.52
2018-06-11T06:01:33.192Z,97377.81
2018-06-11T06:02:04.777Z,97378.68
2018-06-11T06:02:36.371Z,97376.11
2018-06-11T06:03:07.958Z,97384.23
2018-06-11T06:03:39.562Z,97388.91
2018-06-11T06:04:11.146Z,97383.78
2018-06-11T06:04:42.767Z,97380.83
2018-06-11T06:05:14.362Z,97382.97
2018-06-11T06:05:45.937Z,97392.37
2018-06-11T06:06:17.528Z,97383.83
2018-06-11T06:06:49.214Z,97385.17
2018-06-11T06:07:20.817Z,97382.61
2018-06-11T06:07:52.411Z,97386.03
2018-06-11T06:08:23.988Z,97386.45
2018-06-11T06:08:55.613Z,97382.61
2018-06-11T06:09:27.185Z,97385.17
2018-06-11T06:09:58.825Z,97384.31
2018-06-11T06:10:30.434Z,97381.74
2018-06-11T06:11:02.011Z,97382.30